createdAt,value
2022-10-02T00:00:40.398Z,100924.59
2022-10-02T00:05:53.933Z,100931.16
2022-10-02T00:11:01.545Z,100938.34
2022-10-02T00:16:07.346Z,100938.88
2022-10-02T00:21:54.054Z,100938.81
2022-10-02T00:27:04.356Z,100934.50
2022-10-02T00:32:08.955Z,100946.50
2022-10-02T00:37:13.236Z,100934.72
2022-10-02T00:42:36.427Z,100957.25
2022-10-02T00:48:15.393Z,100957.44
2022-10-02T00:53:38.368Z,100964.13
2022-10-02T00:59:18.453Z,100965.38
2022-10-02T01:04:33.209Z,100960.94
2022-10-02T01:09:34.904Z,100956.69
2022-10-02T01:14:38.937Z,100957.84
2022-10-02T01:19:42.474Z,100958.47
2022-10-02T01:24:47.060Z,100956.44
2022-10-02T01:29:54.436Z,100964.34
2022-10-02T01:34:56.823Z,100971.25
2022-10-02T01:40:04.923Z,100969.66
2022-10-02T01:45:09.022Z,100968.00
2022-10-02T01:50:36.063Z,100970.69
2022-10-02T01:55:59.696Z,100973.72
2022-10-02T02:01:20.696Z,100974.72
2022-10-02T02:06:48.281Z,100971.25
2022-10-02T02:12:12.555Z,100968.41
2022-10-02T02:17:50.692Z,100970.22
2022-10-02T02:22:55.329Z,100972.22
2022-10-02T02:28:01.377Z,100963.06
2022-10-02T02:33:14.370Z,100963.06
2022-10-02T02:38:32.023Z,100958.50
2022-10-02T02:43:46.290Z,100956.09
2022-10-02T02:48:57.822Z,100948.25
2022-10-02T02:54:16.797Z,100961.47
2022-10-02T02:59:20.813Z,100970.28
2022-10-02T03:04:22.474Z,100964.81
2022-10-02T03:09:26.004Z,100967.66
2022-10-02T03:14:55.558Z,100958.13
2022-10-02T03:20:42.774Z,100961.97
2022-10-02T03:26:02.357Z,100961.38
2022-10-02T03:31:04.602Z,100977.19
2022-10-02T03:36:06.462Z,100956.06
2022-10-02T03:41:07.975Z,100954.22
2022-10-02T03:46:09.547Z,100963.97
2022-10-02T03:51:11.041Z,100961.56
2022-10-02T03:56:46.433Z,100962.34
2022-10-02T04:01:51.727Z,100968.22
2022-10-02T04:07:04.612Z,100978.19
2022-10-02T04:12:15.774Z,100957.69
2022-10-02T04:17:40.363Z,100960.09
2022-10-02T04:22:49.323Z,100963.75
2022-10-02T04:27:50.808Z,100970.66
2022-10-02T04:32:53.565Z,100975.94
2022-10-02T04:38:28.586Z,100986.28
2022-10-02T04:44:07.150Z,100988.50
2022-10-02T04:49:37.952Z,100988.13
2022-10-02T04:55:05.002Z,100999.28
2022-10-02T05:00:13.705Z,100990.38
2022-10-02T05:05:37.221Z,100990.38
2022-10-02T05:10:41.893Z,100988.97
2022-10-02T05:16:23.541Z,100972.72
2022-10-02T05:21:41.938Z,100992.19
2022-10-02T05:27:06.901Z,100990.38
2022-10-02T05:32:22.510Z,100991.78
2022-10-02T05:37:56.632Z,100991.59
2022-10-02T05:43:07.725Z,101001.50
2022-10-02T05:48:27.484Z,101011.28
2022-10-02T05:53:44.306Z,101007.22
2022-10-02T05:58:55.254Z,101016.97
2022-10-02T06:04:06.524Z,101015.38
2022-10-02T06:09:26.761Z,101018.00
2022-10-02T06:14:34.079Z,101025.91
2022-10-02T06:20:03.038Z,101025.69
2022-10-02T06:25:24.510Z,101026.72
2022-10-02T06:30:28.977Z,101043.56
2022-10-02T06:35:39.602Z,101050.88
2022-10-02T06:40:46.007Z,101060.22
2022-10-02T06:45:56.982Z,101060.81
2022-10-02T06:51:22.810Z,101067.13
2022-10-02T06:56:53.957Z,101069.16
2022-10-02T07:02:33.191Z,101069.78
2022-10-02T07:07:56.443Z,101082.16
2022-10-02T07:13:07.254Z,101086.84
2022-10-02T07:18:36.472Z,101079.13
2022-10-02T07:24:02.657Z,101079.94
2022-10-02T07:29:27.880Z,101091.53
2022-10-02T07:34:52.897Z,101099.00
2022-10-02T07:40:00.195Z,101099.44
2022-10-02T07:45:48.687Z,101095.56
2022-10-02T07:51:11.647Z,101101.03
2022-10-02T07:56:14.729Z,101103.69
2022-10-02T08:01:21.089Z,101120.16
2022-10-02T08:06:23.091Z,101123.97
2022-10-02T08:11:29.784Z,101116.28
2022-10-02T08:16:35.113Z,101127.25
2022-10-02T08:21:43.073Z,101126.25
2022-10-02T08:26:59.068Z,101133.19
2022-10-02T08:32:00.936Z,101124.81
2022-10-02T08:37:20.085Z,101125.16
2022-10-02T08:42:30.746Z,101132.91
2022-10-02T08:47:54.106Z,101126.41
2022-10-02T08:53:30.410Z,101130.69
2022-10-02T08:58:59.775Z,101131.53
2022-10-02T09:04:23.029Z,101133.53
2022-10-02T09:09:37.129Z,101134.91
2022-10-02T09:14:46.271Z,101144.34
2022-10-02T09:20:46.037Z,101153.97
2022-10-02T09:25:53.411Z,101152.22
2022-10-02T09:31:32.579Z,101145.56
2022-10-02T09:37:19.074Z,101150.28
2022-10-02T09:43:04.287Z,101150.56
2022-10-02T09:48:24.676Z,101150.63
2022-10-02T09:53:28.924Z,101146.16
2022-10-02T09:58:43.298Z,101143.38
2022-10-02T10:04:06.060Z,101155.06
2022-10-02T10:09:19.778Z,101158.47
2022-10-02T10:14:39.534Z,101164.94
2022-10-02T10:20:06.597Z,101168.53
2022-10-02T10:25:50.004Z,101162.84
2022-10-02T10:31:10.366Z,101168.38
2022-10-02T10:36:11.908Z,101182.31
2022-10-02T10:41:51.377Z,101177.97
2022-10-02T10:47:10.007Z,101176.31
2022-10-02T10:52:30.309Z,101181.63
2022-10-02T10:58:09.627Z,101193.94
2022-10-02T11:03:40.162Z,101198.00
2022-10-02T11:09:02.392Z,101198.59
2022-10-02T11:14:24.050Z,101210.47
2022-10-02T11:19:38.304Z,101212.19
2022-10-02T11:24:49.017Z,101222.84
2022-10-02T11:30:32.698Z,101224.41
2022-10-02T11:35:44.903Z,101236.63
2022-10-02T11:41:30.880Z,101244.31
2022-10-02T11:46:44.544Z,101235.78
2022-10-02T11:52:07.929Z,101241.22
2022-10-02T11:57:20.975Z,101245.88
2022-10-02T12:02:33.298Z,101233.13
2022-10-02T12:07:53.716Z,101237.44
2022-10-02T12:13:13.415Z,101232.22
2022-10-02T12:18:32.879Z,101235.53
2022-10-02T12:23:46.568Z,101237.25
2022-10-02T12:29:49.733Z,101242.25
2022-10-02T12:35:05.360Z,101245.13
2022-10-02T12:40:25.157Z,101244.53
2022-10-02T12:45:47.715Z,101235.28
2022-10-02T12:51:08.617Z,101244.81
2022-10-02T12:56:46.837Z,101239.75
2022-10-02T13:01:54.201Z,101235.34
2022-10-02T13:07:40.877Z,101239.34
2022-10-02T13:13:20.031Z,101231.22
2022-10-02T13:18:40.649Z,101224.69
2022-10-02T13:23:42.208Z,101226.41
2022-10-02T13:29:18.860Z,101225.94
2022-10-02T13:34:57.338Z,101229.91
2022-10-02T13:40:20.647Z,101235.81
2022-10-02T13:45:35.777Z,101236.50
2022-10-02T13:50:59.219Z,101246.69
2022-10-02T13:56:26.674Z,101250.66
2022-10-02T14:01:52.438Z,101258.97
2022-10-02T14:07:20.889Z,101262.25
2022-10-02T14:12:25.173Z,101264.34
2022-10-02T14:18:05.105Z,101265.75
2022-10-02T14:23:21.901Z,101268.91
2022-10-02T14:28:23.412Z,101277.66
2022-10-02T14:33:44.039Z,101274.97
2022-10-02T14:38:45.531Z,101283.72
2022-10-02T14:44:14.596Z,101280.56
2022-10-02T14:49:39.514Z,101274.50
2022-10-02T14:55:01.268Z,101283.75
2022-10-02T15:00:20.497Z,101282.03
2022-10-02T15:06:06.773Z,101285.16
2022-10-02T15:11:22.546Z,101281.84
2022-10-02T15:16:41.014Z,101284.31
2022-10-02T15:21:42.559Z,101280.47
2022-10-02T15:27:07.274Z,101289.69
2022-10-02T15:32:40.922Z,101292.66
2022-10-02T15:37:48.475Z,101301.69
2022-10-02T15:43:11.213Z,101309.81
2022-10-02T15:48:36.165Z,101309.09
2022-10-02T15:54:02.276Z,101302.19
2022-10-02T15:59:21.871Z,101311.94
2022-10-02T16:04:48.152Z,101317.91
2022-10-02T16:09:55.445Z,101324.22
2022-10-02T16:15:19.976Z,101322.56
2022-10-02T16:20:50.646Z,101321.38
2022-10-02T16:26:15.342Z,101343.03
2022-10-02T16:31:44.947Z,101341.91
2022-10-02T16:36:57.312Z,101354.59
2022-10-02T16:42:39.448Z,101359.41
2022-10-02T16:48:10.281Z,101371.25
2022-10-02T16:53:25.150Z,101370.81
2022-10-02T16:58:44.979Z,101392.41
2022-10-02T17:04:05.529Z,101397.88
2022-10-02T17:09:17.388Z,101411.94
2022-10-02T17:14:27.822Z,101425.53
2022-10-02T17:19:47.869Z,101432.41
2022-10-02T17:25:15.926Z,101437.47
2022-10-02T17:30:26.332Z,101447.91
2022-10-02T17:35:43.975Z,101452.56
2022-10-02T17:41:11.802Z,101466.00
2022-10-02T17:46:19.269Z,101474.56
2022-10-02T17:51:47.504Z,101481.47
2022-10-02T17:56:57.909Z,101491.66
2022-10-02T18:02:17.418Z,101512.16
2022-10-02T18:07:40.520Z,101513.47
2022-10-02T18:13:13.793Z,101527.03
2022-10-02T18:18:20.996Z,101532.25
2022-10-02T18:24:05.145Z,101542.50
2022-10-02T18:29:28.616Z,101549.88
2022-10-02T18:34:43.392Z,101555.75
2022-10-02T18:40:13.155Z,101562.16
2022-10-02T18:45:56.060Z,101569.59
2022-10-02T18:51:28.594Z,101574.28
2022-10-02T18:56:56.489Z,101588.78
2022-10-02T19:02:13.208Z,101595.16
2022-10-02T19:07:19.466Z,101587.69
2022-10-02T19:12:24.747Z,101604.31
2022-10-02T19:17:27.883Z,101608.69
2022-10-02T19:22:32.847Z,101620.94
2022-10-02T19:27:35.774Z,101620.38
2022-10-02T19:32:40.644Z,101633.00
2022-10-02T19:37:44.753Z,101634.44
2022-10-02T19:42:50.914Z,101650.63
2022-10-02T19:48:02.749Z,101660.09
2022-10-02T19:53:27.456Z,101666.22
2022-10-02T19:59:04.517Z,101669.69
2022-10-02T20:04:06.962Z,101679.22
2022-10-02T20:09:14.304Z,101682.38
2022-10-02T20:14:48.173Z,101691.72
2022-10-02T20:19:54.231Z,101689.53
2022-10-02T20:25:28.091Z,101694.19
2022-10-02T20:30:39.599Z,101706.91
2022-10-02T20:35:49.062Z,101716.66
2022-10-02T20:40:54.150Z,101717.63
2022-10-02T20:46:08.011Z,101724.69
2022-10-02T20:51:15.280Z,101733.44
2022-10-02T20:56:41.795Z,101743.66
2022-10-02T21:01:49.336Z,101750.13
2022-10-02T21:07:23.970Z,101759.47
2022-10-02T21:12:49.281Z,101772.47
2022-10-02T21:18:08.716Z,101772.44
2022-10-02T21:23:25.162Z,101782.88
2022-10-02T21:29:04.128Z,101796.34
2022-10-02T21:34:14.566Z,101798.75
2022-10-02T21:39:31.173Z,101800.91
2022-10-02T21:44:44.842Z,101800.47
2022-10-02T21:50:02.836Z,101804.34
2022-10-02T21:55:38.195Z,101806.34
2022-10-02T22:01:24.856Z,101815.78
2022-10-02T22:06:34.289Z,101830.59
2022-10-02T22:12:03.779Z,101837.16
2022-10-02T22:17:50.496Z,101851.06
2022-10-02T22:22:54.693Z,101855.34
2022-10-02T22:28:20.327Z,101859.16
2022-10-02T22:33:40.460Z,101862.31
2022-10-02T22:38:46.169Z,101855.94
2022-10-02T22:44:12.116Z,101867.97
2022-10-02T22:49:35.608Z,101863.19
2022-10-02T22:54:51.405Z,101872.56
2022-10-02T23:00:00.459Z,101883.56
2022-10-02T23:05:10.872Z,101888.28
2022-10-02T23:10:19.132Z,101891.88
2022-10-02T23:15:42.319Z,101888.59
2022-10-02T23:21:11.467Z,101888.06
2022-10-02T23:26:19.651Z,101888.38
2022-10-02T23:31:25.647Z,101886.34
2022-10-02T23:36:37.530Z,101886.63
2022-10-02T23:41:47.478Z,101883.78
2022-10-02T23:46:48.928Z,101891.28
2022-10-02T23:52:02.718Z,101895.31
2022-10-02T23:57:20.657Z,101899.25
